createdAt,value
2023-03-22T00:01:12.603Z,50.79
2023-03-22T00:03:39.086Z,50.88
2023-03-22T00:06:05.669Z,50.75
2023-03-22T00:08:31.997Z,50.67
2023-03-22T00:10:58.348Z,50.81
2023-03-22T00:13:24.681Z,50.68
2023-03-22T00:15:51.040Z,50.68
2023-03-22T00:18:17.496Z,50.85
2023-03-22T00:20:47.173Z,50.80
2023-03-22T00:23:13.536Z,50.79
2023-03-22T00:25:39.858Z,50.81
2023-03-22T00:28:06.194Z,50.79
2023-03-22T00:30:32.572Z,50.79
2023-03-22T00:32:58.948Z,50.80
2023-03-22T00:35:25.735Z,50.70
2023-03-22T00:37:52.105Z,50.75
2023-03-22T00:40:18.505Z,50.75
2023-03-22T00:42:44.871Z,50.72
2023-03-22T00:45:11.210Z,50.72
2023-03-22T00:47:37.563Z,50.71
2023-03-22T00:50:04.023Z,50.74
2023-03-22T00:52:31.374Z,50.71
2023-03-22T00:54:58.511Z,50.74
2023-03-22T00:57:25.220Z,50.79
2023-03-22T00:59:53.838Z,50.67
2023-03-22T01:02:20.232Z,50.73
2023-03-22T01:04:47.862Z,50.76
2023-03-22T01:07:17.698Z,50.69
2023-03-22T01:09:44.445Z,50.69
2023-03-22T01:12:14.121Z,50.83
2023-03-22T01:14:40.692Z,50.58
2023-03-22T01:17:07.267Z,50.72
2023-03-22T01:19:34.046Z,50.60
2023-03-22T01:22:00.648Z,50.69
2023-03-22T01:24:27.012Z,50.76
2023-03-22T01:26:53.481Z,50.70
2023-03-22T01:29:20.149Z,50.65
2023-03-22T01:31:46.537Z,50.65
2023-03-22T01:34:13.433Z,50.67
2023-03-22T01:36:39.771Z,50.63
2023-03-22T01:39:06.789Z,50.67
2023-03-22T01:41:34.966Z,50.71
2023-03-22T01:44:13.756Z,50.73
2023-03-22T01:46:40.531Z,50.57
2023-03-22T01:49:07.915Z,50.66
2023-03-22T01:51:34.367Z,50.72
2023-03-22T01:54:29.932Z,50.73
2023-03-22T01:56:59.182Z,50.68
2023-03-22T01:59:33.395Z,50.75
2023-03-22T02:02:14.817Z,50.66
2023-03-22T02:04:41.232Z,50.66
2023-03-22T02:23:55.851Z,50.71
2023-03-22T02:26:33.359Z,50.66
2023-03-22T02:29:02.647Z,50.68
2023-03-22T02:31:47.866Z,50.70
2023-03-22T02:34:28.604Z,50.61
2023-03-22T02:37:15.422Z,50.69
2023-03-22T02:39:55.768Z,50.73
2023-03-22T02:42:27.450Z,50.68
2023-03-22T02:44:53.685Z,50.59
2023-03-22T02:47:24.212Z,50.71
2023-03-22T02:49:54.088Z,50.69
2023-03-22T02:52:25.758Z,50.59
2023-03-22T02:55:11.210Z,50.61
2023-03-22T02:57:39.391Z,50.62
2023-03-22T03:00:10.524Z,50.61
2023-03-22T03:02:37.001Z,50.55
2023-03-22T03:05:03.444Z,50.68
2023-03-22T03:07:29.806Z,50.52
2023-03-22T03:09:56.314Z,50.64
2023-03-22T03:12:25.961Z,50.63
2023-03-22T03:14:54.427Z,50.61
2023-03-22T03:17:23.720Z,50.65
2023-03-22T03:19:57.430Z,50.66
2023-03-22T03:22:35.631Z,50.63
2023-03-22T03:25:01.892Z,50.58
2023-03-22T03:27:30.640Z,50.63
2023-03-22T03:30:02.969Z,50.57
2023-03-22T03:32:36.567Z,50.55
2023-03-22T03:35:25.422Z,50.50
2023-03-22T03:37:57.525Z,50.60
2023-03-22T03:40:26.391Z,50.48
2023-03-22T03:42:53.201Z,50.38
2023-03-22T03:45:19.570Z,50.24
2023-03-22T03:47:46.571Z,50.15
2023-03-22T03:50:13.142Z,50.05
2023-03-22T03:52:39.480Z,50.03
2023-03-22T03:55:06.185Z,50.04
2023-03-22T03:57:34.658Z,50.25
2023-03-22T04:00:01.016Z,50.44
2023-03-22T04:02:40.352Z,50.42
2023-03-22T04:05:08.390Z,50.51
2023-03-22T04:07:34.778Z,50.33
2023-03-22T04:10:01.166Z,49.89
2023-03-22T04:12:31.731Z,50.26
2023-03-22T04:15:12.145Z,50.12
2023-03-22T04:17:39.456Z,50.22
2023-03-22T04:20:07.174Z,50.24
2023-03-22T04:22:38.371Z,50.35
2023-03-22T04:25:05.424Z,50.33
2023-03-22T04:27:32.041Z,50.42
2023-03-22T04:30:01.622Z,50.53
2023-03-22T04:33:06.968Z,50.33
2023-03-22T04:35:57.301Z,50.57
2023-03-22T04:38:29.430Z,50.37
2023-03-22T04:40:55.845Z,50.53
2023-03-22T04:43:34.796Z,50.37
2023-03-22T04:46:03.655Z,50.50
2023-03-22T04:48:39.821Z,50.38
2023-03-22T04:51:06.694Z,50.43
2023-03-22T04:53:38.847Z,50.28
2023-03-22T04:56:07.030Z,50.17
2023-03-22T04:58:34.521Z,50.49
2023-03-22T05:01:01.104Z,50.49
2023-03-22T05:03:27.444Z,50.44
2023-03-22T05:05:57.459Z,50.53
2023-03-22T05:08:28.917Z,50.53
2023-03-22T05:10:55.721Z,50.46
2023-03-22T05:13:22.813Z,50.61
2023-03-22T05:15:49.397Z,50.34
2023-03-22T05:18:20.511Z,50.36
2023-03-22T05:20:47.099Z,50.21
2023-03-22T05:23:19.162Z,50.27
2023-03-22T05:25:48.401Z,50.33
2023-03-22T05:28:16.646Z,50.29
2023-03-22T05:30:55.894Z,50.36
2023-03-22T05:33:31.901Z,50.42
2023-03-22T05:35:58.327Z,50.44
2023-03-22T05:38:27.390Z,50.29
2023-03-22T05:40:56.902Z,50.36
2023-03-22T05:43:23.496Z,50.59
2023-03-22T05:45:50.946Z,50.51
2023-03-22T05:48:32.663Z,50.62
2023-03-22T05:50:59.420Z,50.46
2023-03-22T05:53:28.462Z,50.30
2023-03-22T05:56:00.647Z,50.38
2023-03-22T05:58:30.553Z,49.95
2023-03-22T06:01:00.860Z,50.36
2023-03-22T06:03:48.447Z,50.38
2023-03-22T06:06:23.837Z,50.26
2023-03-22T06:09:14.175Z,50.21
2023-03-22T06:11:42.697Z,50.13
2023-03-22T06:14:09.236Z,50.30
2023-03-22T06:16:54.989Z,50.46
2023-03-22T06:19:21.554Z,50.40
2023-03-22T06:21:48.009Z,50.48
2023-03-22T06:24:16.015Z,50.54
2023-03-22T06:26:42.385Z,50.51
2023-03-22T06:29:08.744Z,50.65
2023-03-22T06:31:35.437Z,50.58
2023-03-22T06:34:04.822Z,50.68
2023-03-22T06:36:36.916Z,50.71
2023-03-22T06:39:10.723Z,50.80
2023-03-22T06:41:40.736Z,50.69
2023-03-22T06:44:07.377Z,49.69
2023-03-22T06:46:43.617Z,50.81
2023-03-22T06:49:22.721Z,57.58
2023-03-22T06:51:52.552Z,54.63
2023-03-22T06:54:19.470Z,52.17
2023-03-22T06:56:46.009Z,53.21
2023-03-22T06:59:37.638Z,52.07
2023-03-22T07:02:03.971Z,50.36
2023-03-22T07:04:30.863Z,51.12
2023-03-22T07:06:57.270Z,53.11
2023-03-22T07:09:51.153Z,51.33
2023-03-22T07:12:18.623Z,49.52
2023-03-22T07:14:45.459Z,49.12
2023-03-22T07:17:26.743Z,48.60
2023-03-22T07:19:53.259Z,48.17
2023-03-22T07:22:22.298Z,47.91
2023-03-22T07:24:57.729Z,47.93
2023-03-22T07:27:27.239Z,48.09
2023-03-22T07:29:54.163Z,48.33
2023-03-22T07:32:21.236Z,48.14
2023-03-22T07:34:58.338Z,47.85
2023-03-22T07:37:24.697Z,47.50
2023-03-22T07:39:51.050Z,47.89
2023-03-22T07:42:17.596Z,47.81
2023-03-22T07:45:04.152Z,47.43
2023-03-22T07:47:50.612Z,47.83
2023-03-22T07:50:17.615Z,48.35
2023-03-22T07:52:46.068Z,48.63
2023-03-22T07:55:13.213Z,48.85
2023-03-22T07:57:39.646Z,48.71
2023-03-22T08:00:08.321Z,48.82
2023-03-22T08:02:48.175Z,48.91
2023-03-22T08:05:30.848Z,48.87
2023-03-22T08:08:01.202Z,49.01
2023-03-22T08:10:27.734Z,49.04
2023-03-22T08:12:54.584Z,49.11
2023-03-22T08:15:23.887Z,48.89
2023-03-22T08:17:50.384Z,49.09
2023-03-22T08:20:29.128Z,49.18
2023-03-22T08:23:00.047Z,49.04
2023-03-22T08:25:26.392Z,48.64
2023-03-22T08:27:56.002Z,48.11
2023-03-22T08:30:26.751Z,47.36
2023-03-22T08:32:53.643Z,47.94
2023-03-22T08:35:20.724Z,47.63
2023-03-22T08:37:47.156Z,47.43
2023-03-22T08:40:15.154Z,47.09
2023-03-22T08:42:54.100Z,47.24
2023-03-22T08:45:20.496Z,47.31
2023-03-22T08:47:53.294Z,47.00
2023-03-22T08:50:23.325Z,47.08
2023-03-22T08:52:57.965Z,46.70
2023-03-22T08:55:27.210Z,46.64
2023-03-22T08:58:19.990Z,46.68
2023-03-22T09:00:55.586Z,46.93
2023-03-22T09:03:25.849Z,47.04
2023-03-22T09:05:52.187Z,47.59
2023-03-22T09:08:19.811Z,47.57
2023-03-22T09:10:51.314Z,47.75
2023-03-22T09:13:20.335Z,47.75
2023-03-22T09:15:53.596Z,47.62
2023-03-22T09:18:25.827Z,47.84
2023-03-22T09:20:54.050Z,47.59
2023-03-22T09:23:25.031Z,47.71
2023-03-22T09:25:52.008Z,48.09
2023-03-22T09:28:21.844Z,48.01
2023-03-22T09:30:48.387Z,47.85
2023-03-22T09:33:16.101Z,48.30
2023-03-22T09:35:44.933Z,48.61
2023-03-22T09:38:13.699Z,48.61
2023-03-22T09:40:46.520Z,48.36
2023-03-22T09:43:12.938Z,47.66
2023-03-22T09:45:41.703Z,47.39
2023-03-22T09:48:27.887Z,47.29
2023-03-22T09:50:54.317Z,46.79
2023-03-22T09:53:20.984Z,47.00
2023-03-22T09:55:50.836Z,47.09
2023-03-22T09:58:19.807Z,47.20
2023-03-22T10:00:48.246Z,47.25
2023-03-22T10:03:32.968Z,47.67
2023-03-22T10:06:02.938Z,47.74
2023-03-22T10:08:48.132Z,47.56
2023-03-22T10:11:19.617Z,47.62
2023-03-22T10:13:53.376Z,47.55
2023-03-22T10:16:25.056Z,47.40
2023-03-22T10:18:51.477Z,47.81
2023-03-22T10:21:17.803Z,47.81
2023-03-22T10:23:50.260Z,48.38
2023-03-22T10:26:24.870Z,48.36
2023-03-22T10:28:56.285Z,48.45
2023-03-22T10:31:22.690Z,48.67
2023-03-22T10:33:51.928Z,48.75
2023-03-22T10:36:19.637Z,48.81
2023-03-22T10:38:47.046Z,48.77
2023-03-22T10:41:13.819Z,49.00
2023-03-22T10:43:40.154Z,48.79
2023-03-22T10:46:08.084Z,48.79
2023-03-22T10:48:35.322Z,48.92
2023-03-22T10:51:01.700Z,48.98
2023-03-22T10:53:40.734Z,48.91
2023-03-22T10:56:11.257Z,48.06
2023-03-22T10:58:37.616Z,48.11
2023-03-22T11:01:17.219Z,47.02
2023-03-22T11:03:44.392Z,46.55
2023-03-22T11:06:13.471Z,46.01
2023-03-22T11:08:40.728Z,46.21
2023-03-22T11:11:07.722Z,45.46
2023-03-22T11:13:34.051Z,45.05
2023-03-22T11:16:03.432Z,44.88
2023-03-22T11:18:31.116Z,44.70
2023-03-22T11:20:58.708Z,44.62
2023-03-22T11:23:25.283Z,44.78
2023-03-22T11:25:51.964Z,44.74
2023-03-22T11:28:19.248Z,45.22
2023-03-22T11:30:57.748Z,45.09
2023-03-22T11:33:25.938Z,45.23
2023-03-22T11:35:56.225Z,45.11
2023-03-22T11:38:26.010Z,45.48
2023-03-22T11:40:54.034Z,45.72
2023-03-22T11:43:21.000Z,45.85
2023-03-22T11:45:48.153Z,46.10
2023-03-22T11:48:24.588Z,46.25
2023-03-22T11:50:52.706Z,46.28
2023-03-22T11:53:23.062Z,46.24
2023-03-22T11:55:49.830Z,46.17
2023-03-22T11:58:24.599Z,46.21
2023-03-22T12:00:52.391Z,46.38
2023-03-22T12:03:20.250Z,46.40
2023-03-22T12:05:47.632Z,46.85
2023-03-22T12:08:42.716Z,47.41
2023-03-22T12:11:11.424Z,47.54
2023-03-22T12:13:51.435Z,47.44
2023-03-22T12:16:21.735Z,47.31
2023-03-22T12:19:05.226Z,47.58
2023-03-22T12:21:31.606Z,47.45
2023-03-22T12:23:58.999Z,46.75
2023-03-22T12:26:26.307Z,46.54
2023-03-22T12:28:56.679Z,45.99
2023-03-22T12:31:27.788Z,45.97
2023-03-22T12:33:54.445Z,46.18
2023-03-22T12:36:22.034Z,46.62
2023-03-22T12:38:49.504Z,47.42
2023-03-22T12:41:16.654Z,46.36
2023-03-22T12:43:45.620Z,46.04
2023-03-22T12:46:17.457Z,46.37
2023-03-22T12:48:46.612Z,46.76
2023-03-22T12:51:14.129Z,46.87
2023-03-22T12:53:44.868Z,46.81
2023-03-22T12:56:32.967Z,47.36
2023-03-22T12:59:01.297Z,47.19
2023-03-22T13:01:33.333Z,47.54
2023-03-22T13:03:59.822Z,47.19
2023-03-22T13:06:45.324Z,47.31
2023-03-22T13:09:18.473Z,47.17
2023-03-22T13:11:48.885Z,47.10
2023-03-22T13:14:34.236Z,47.03
2023-03-22T13:17:01.087Z,47.20
2023-03-22T13:19:33.003Z,47.07
2023-03-22T13:22:15.897Z,47.25
2023-03-22T13:24:58.269Z,47.30
2023-03-22T13:27:35.384Z,47.28
2023-03-22T13:30:04.972Z,47.24
2023-03-22T13:32:33.270Z,47.12
2023-03-22T13:34:59.683Z,47.56
2023-03-22T13:37:37.863Z,47.37
2023-03-22T13:40:13.507Z,47.45
2023-03-22T13:42:39.972Z,47.66
2023-03-22T13:45:09.820Z,47.86
2023-03-22T13:47:37.009Z,48.02
2023-03-22T13:50:14.565Z,47.96
2023-03-22T13:52:45.901Z,47.85
2023-03-22T13:55:35.738Z,47.69
2023-03-22T13:58:02.796Z,47.82
2023-03-22T14:00:29.294Z,47.82
2023-03-22T14:02:56.131Z,47.79
2023-03-22T14:05:22.807Z,47.59
2023-03-22T14:07:50.753Z,47.66
2023-03-22T14:10:21.448Z,47.81
2023-03-22T14:12:47.743Z,47.76
2023-03-22T14:15:21.792Z,47.40
2023-03-22T14:17:50.646Z,48.04
2023-03-22T14:20:19.097Z,47.98
